createdAt,value
2023-04-27T00:04:49.397Z,8.90
2023-04-27T00:10:51.900Z,8.90
2023-04-27T00:16:54.699Z,9.00
2023-04-27T00:22:57.074Z,9.00
2023-04-27T00:28:59.726Z,9.00
2023-04-27T00:35:02.030Z,9.00
2023-04-27T00:41:06.471Z,8.90
2023-04-27T00:47:09.498Z,9.00
2023-04-27T00:53:12.307Z,8.90
2023-04-27T00:59:14.908Z,9.00
2023-04-27T01:05:17.541Z,9.00
2023-04-27T01:11:22.261Z,9.00
2023-04-27T01:17:25.041Z,9.00
2023-04-27T01:23:27.551Z,9.00
2023-04-27T01:29:29.924Z,9.10
2023-04-27T01:35:32.197Z,9.00
2023-04-27T01:41:37.782Z,9.00
2023-04-27T01:47:40.412Z,9.10
2023-04-27T01:53:43.514Z,9.00
2023-04-27T01:59:46.004Z,9.10
2023-04-27T02:05:48.887Z,9.10
2023-04-27T02:11:51.381Z,9.10
2023-04-27T02:17:53.989Z,9.10
2023-04-27T02:23:56.641Z,9.20
2023-04-27T02:29:59.374Z,9.10
2023-04-27T02:36:02.098Z,9.10
2023-04-27T02:42:04.426Z,9.10
2023-04-27T02:48:07.113Z,9.10
2023-04-27T02:54:10.249Z,9.20
2023-04-27T03:00:12.499Z,9.20
2023-04-27T03:06:15.632Z,9.20
2023-04-27T03:12:17.957Z,9.20
2023-04-27T03:18:24.251Z,9.30
2023-04-27T03:24:26.537Z,9.20
2023-04-27T03:30:29.043Z,9.30
2023-04-27T03:36:32.712Z,9.30
2023-04-27T03:42:35.208Z,9.40
2023-04-27T03:48:37.661Z,9.50
2023-04-27T03:54:40.506Z,9.50
2023-04-27T04:00:42.841Z,9.60
2023-04-27T04:06:46.867Z,9.60
2023-04-27T04:12:49.129Z,9.60
2023-04-27T04:18:52.495Z,9.60
2023-04-27T04:24:54.688Z,9.70
2023-04-27T04:30:57.231Z,9.80
2023-04-27T04:36:59.590Z,9.80
2023-04-27T04:43:02.015Z,9.90
2023-04-27T04:49:05.117Z,9.90
2023-04-27T04:55:09.103Z,9.80
2023-04-27T05:01:11.379Z,9.80
2023-04-27T05:07:15.119Z,9.80
2023-04-27T05:13:18.522Z,9.80
2023-04-27T05:19:21.294Z,9.70
2023-04-27T05:25:23.476Z,9.70
2023-04-27T05:31:25.957Z,9.80
2023-04-27T05:37:28.171Z,9.80
2023-04-27T05:43:30.668Z,9.90
2023-04-27T05:49:33.133Z,9.80
2023-04-27T05:55:35.474Z,9.80
2023-04-27T06:01:37.759Z,9.70
2023-04-27T06:07:40.240Z,9.80
2023-04-27T06:13:42.394Z,10.00
2023-04-27T06:19:44.676Z,10.20
2023-04-27T06:25:47.347Z,10.80
2023-04-27T06:31:49.946Z,11.30
2023-04-27T06:37:52.788Z,11.50
2023-04-27T06:43:56.884Z,11.60
2023-04-27T06:50:00.962Z,11.40
2023-04-27T06:56:04.126Z,11.40
2023-04-27T07:02:07.800Z,11.40
2023-04-27T07:08:10.645Z,11.60
2023-04-27T07:14:12.861Z,12.00
2023-04-27T07:20:15.456Z,12.40
2023-04-27T07:26:18.455Z,13.70
2023-04-27T07:32:22.279Z,14.20
2023-04-27T07:38:25.022Z,14.50
2023-04-27T07:44:27.471Z,14.60
2023-04-27T07:50:30.519Z,15.00
2023-04-27T07:56:33.561Z,14.10
2023-04-27T08:02:36.378Z,13.70
2023-04-27T08:08:39.041Z,13.70
2023-04-27T08:14:41.529Z,14.00
2023-04-27T08:20:44.266Z,13.80
2023-04-27T08:26:46.701Z,14.70
2023-04-27T08:32:49.294Z,15.30
2023-04-27T08:38:52.458Z,17.70
2023-04-27T08:44:54.890Z,18.50
2023-04-27T08:50:58.965Z,17.60
2023-04-27T08:57:01.490Z,20.20
2023-04-27T09:03:04.573Z,21.40
2023-04-27T09:09:11.662Z,21.10
2023-04-27T09:15:14.331Z,18.40
2023-04-27T09:21:23.643Z,16.90
2023-04-27T09:27:26.176Z,17.40
2023-04-27T09:33:32.652Z,19.10
2023-04-27T09:39:36.984Z,19.10
2023-04-27T09:45:39.625Z,22.00
2023-04-27T09:51:41.997Z,21.20
2023-04-27T09:58:22.728Z,21.50
2023-04-27T10:04:44.257Z,19.90
2023-04-27T10:10:50.252Z,19.40
2023-04-27T10:16:54.901Z,20.70
2023-04-27T10:22:59.635Z,18.80
2023-04-27T10:29:09.563Z,18.60
2023-04-27T10:35:11.841Z,18.20
2023-04-27T10:41:15.302Z,19.90
2023-04-27T10:47:22.485Z,20.50
2023-04-27T10:53:25.717Z,18.60
2023-04-27T10:59:28.135Z,19.50
2023-04-27T11:05:33.754Z,18.80
2023-04-27T11:11:36.264Z,18.20
2023-04-27T11:17:39.065Z,18.00
2023-04-27T11:23:42.818Z,17.90
2023-04-27T11:29:45.535Z,18.90
2023-04-27T11:35:48.356Z,19.10
2023-04-27T11:41:50.832Z,18.80
2023-04-27T11:47:53.574Z,18.10
2023-04-27T11:53:56.120Z,18.00
2023-04-27T12:00:00.710Z,17.60
2023-04-27T12:12:09.216Z,17.10
2023-04-27T12:18:11.659Z,17.10
2023-04-27T12:24:14.599Z,16.50
2023-04-27T12:30:17.500Z,16.40
2023-04-27T12:36:20.118Z,16.60
2023-04-27T12:42:24.991Z,16.90
2023-04-27T12:48:27.916Z,16.60
2023-04-27T12:54:30.324Z,16.50
2023-04-27T13:00:32.818Z,16.40
2023-04-27T13:06:35.399Z,16.20
2023-04-27T13:12:37.966Z,15.80
2023-04-27T13:18:41.271Z,15.10
2023-04-27T13:24:43.713Z,14.60
2023-04-27T13:30:46.083Z,14.70
2023-04-27T13:36:49.622Z,15.30
2023-04-27T13:42:52.438Z,15.90
2023-04-27T13:48:55.211Z,16.20
2023-04-27T13:54:57.661Z,16.30
2023-04-27T14:01:00.056Z,16.70
2023-04-27T14:07:02.476Z,16.60
2023-04-27T14:13:05.230Z,16.10
2023-04-27T14:19:07.618Z,15.50
2023-04-27T14:25:10.008Z,15.30
2023-04-27T14:31:12.371Z,14.80
2023-04-27T14:37:18.276Z,14.60
2023-04-27T14:43:20.770Z,14.80
2023-04-27T14:49:23.068Z,14.60
2023-04-27T14:55:25.522Z,14.80
2023-04-27T15:01:27.715Z,14.90
2023-04-27T15:07:30.070Z,15.10
2023-04-27T15:13:32.413Z,15.40
2023-04-27T15:19:35.666Z,15.60
2023-04-27T15:25:37.920Z,15.30
2023-04-27T15:31:40.419Z,15.30
2023-04-27T15:37:42.750Z,15.20
2023-04-27T15:43:45.331Z,15.20
2023-04-27T15:49:56.793Z,15.10
2023-04-27T15:55:59.917Z,14.90
2023-04-27T16:02:02.149Z,14.80
2023-04-27T16:08:04.812Z,14.70
2023-04-27T16:14:07.349Z,14.50
2023-04-27T16:20:10.382Z,14.20
2023-04-27T16:26:12.719Z,14.00
2023-04-27T16:32:15.198Z,13.90
2023-04-27T16:38:17.757Z,13.80
2023-04-27T16:44:20.197Z,13.70
2023-04-27T16:50:22.734Z,13.60
2023-04-27T16:56:29.645Z,13.30
2023-04-27T17:02:32.121Z,13.10
2023-04-27T17:08:34.802Z,13.00
2023-04-27T17:14:38.844Z,12.90
2023-04-27T17:20:42.313Z,12.80
2023-04-27T17:26:46.254Z,12.70
2023-04-27T17:32:48.762Z,12.70
2023-04-27T17:38:51.025Z,12.60
2023-04-27T17:44:53.305Z,12.60
2023-04-27T17:50:55.520Z,12.50
2023-04-27T17:56:57.960Z,12.50
2023-04-27T18:03:00.625Z,12.50
2023-04-27T18:09:03.923Z,12.50
2023-04-27T18:15:09.688Z,12.40
2023-04-27T18:21:12.306Z,12.30
2023-04-27T18:27:18.878Z,12.30
2023-04-27T18:33:22.241Z,12.20
2023-04-27T18:39:24.551Z,12.20
2023-04-27T18:45:27.101Z,12.10
2023-04-27T18:51:29.766Z,12.10
2023-04-27T18:57:32.570Z,12.10
2023-04-27T19:03:35.259Z,12.10
2023-04-27T19:09:39.148Z,12.10
2023-04-27T19:15:41.690Z,11.80
2023-04-27T19:21:44.500Z,11.60
2023-04-27T19:27:47.049Z,11.50
2023-04-27T19:39:57.184Z,11.20
2023-04-27T19:46:01.457Z,11.10
2023-04-27T19:52:04.310Z,11.00
2023-04-27T19:58:06.781Z,10.80
2023-04-27T20:04:09.239Z,10.60
2023-04-27T20:10:11.783Z,10.60
2023-04-27T20:16:14.263Z,10.40
2023-04-27T20:22:16.591Z,10.30
2023-04-27T20:28:18.922Z,10.20
2023-04-27T20:34:21.171Z,10.20
2023-04-27T20:40:23.422Z,10.20
2023-04-27T20:46:26.785Z,10.20
2023-04-27T20:52:32.417Z,10.10
2023-04-27T20:58:36.304Z,10.10
2023-04-27T21:04:39.863Z,10.00
2023-04-27T21:10:42.615Z,9.90
2023-04-27T21:16:45.140Z,9.80
2023-04-27T21:22:47.876Z,9.60
2023-04-27T21:28:50.215Z,9.50
2023-04-27T21:34:52.450Z,9.40
2023-04-27T21:40:54.784Z,9.30
2023-04-27T21:46:57.573Z,9.20
2023-04-27T21:52:59.844Z,9.10
2023-04-27T21:59:02.235Z,9.00
2023-04-27T22:05:04.897Z,8.90
2023-04-27T22:11:08.237Z,8.90
2023-04-27T22:17:12.971Z,8.80
2023-04-27T22:23:15.349Z,8.70
2023-04-27T22:29:18.008Z,8.70
2023-04-27T22:35:26.532Z,8.60
2023-04-27T22:41:30.064Z,8.60
2023-04-27T22:47:33.332Z,8.50
2023-04-27T22:53:35.549Z,8.50
2023-04-27T22:59:37.677Z,8.40
2023-04-27T23:05:40.129Z,8.30
2023-04-27T23:11:42.788Z,8.20
2023-04-27T23:17:45.154Z,8.00
2023-04-27T23:23:47.761Z,7.90
2023-04-27T23:29:50.012Z,7.80
2023-04-27T23:35:52.877Z,7.60
2023-04-27T23:41:56.042Z,7.60
2023-04-27T23:48:00.088Z,7.50
2023-04-27T23:54:02.824Z,7.40
